createdAt,value
2022-07-27T00:04:21.913Z,27.10
2022-07-27T00:10:37.161Z,27.00
2022-07-27T00:16:51.269Z,26.80
2022-07-27T00:23:05.641Z,26.60
2022-07-27T00:29:19.773Z,26.40
2022-07-27T00:35:33.725Z,26.30
2022-07-27T00:41:49.672Z,26.10
2022-07-27T00:48:02.196Z,26.00
2022-07-27T00:54:16.253Z,25.90
2022-07-27T01:00:29.937Z,25.80
2022-07-27T01:06:44.380Z,25.80
2022-07-27T01:12:58.934Z,25.70
2022-07-27T01:19:12.788Z,25.70
2022-07-27T01:25:26.168Z,25.60
2022-07-27T01:31:38.448Z,25.50
2022-07-27T01:37:52.404Z,25.50
2022-07-27T01:44:03.707Z,25.40
2022-07-27T01:50:18.324Z,25.40
2022-07-27T01:56:32.292Z,25.30
2022-07-27T02:02:46.208Z,25.20
2022-07-27T02:09:00.468Z,25.20
2022-07-27T02:15:17.692Z,25.10
2022-07-27T02:21:31.582Z,25.00
2022-07-27T02:27:44.095Z,24.90
2022-07-27T02:33:58.118Z,24.90
2022-07-27T02:40:14.372Z,24.90
2022-07-27T02:46:28.377Z,24.90
2022-07-27T02:52:42.513Z,24.80
2022-07-27T02:58:55.681Z,24.70
2022-07-27T03:05:07.931Z,24.70
2022-07-27T03:11:23.165Z,24.60
2022-07-27T03:17:38.114Z,24.50
2022-07-27T03:23:50.372Z,24.50
2022-07-27T03:30:04.533Z,24.40
2022-07-27T03:36:20.407Z,24.50
2022-07-27T03:42:32.931Z,24.70
2022-07-27T03:48:46.908Z,24.80
2022-07-27T03:55:00.782Z,24.90
2022-07-27T04:01:15.017Z,24.90
2022-07-27T04:07:30.725Z,24.90
2022-07-27T04:13:45.684Z,25.00
2022-07-27T04:20:01.800Z,24.90
2022-07-27T04:26:12.454Z,24.90
2022-07-27T04:32:25.262Z,24.70
2022-07-27T04:38:38.432Z,24.60
2022-07-27T04:44:52.344Z,24.50
2022-07-27T04:51:05.075Z,24.50
2022-07-27T04:57:18.969Z,24.50
2022-07-27T05:03:31.353Z,24.50
2022-07-27T05:09:45.926Z,24.60
2022-07-27T05:15:57.035Z,24.60
2022-07-27T05:22:09.688Z,24.70
2022-07-27T05:28:23.829Z,24.70
2022-07-27T05:34:37.850Z,24.70
2022-07-27T05:40:52.537Z,24.80
2022-07-27T05:47:06.709Z,24.90
2022-07-27T05:53:21.187Z,24.80
2022-07-27T05:59:35.123Z,24.80
2022-07-27T06:05:49.632Z,24.80
2022-07-27T06:12:02.238Z,24.90
2022-07-27T06:18:18.019Z,25.00
2022-07-27T06:24:32.479Z,24.90
2022-07-27T06:30:47.645Z,24.90
2022-07-27T06:37:02.463Z,24.90
2022-07-27T06:43:14.886Z,25.00
2022-07-27T06:49:29.006Z,24.90
2022-07-27T06:55:41.629Z,25.00
2022-07-27T07:01:53.920Z,25.00
2022-07-27T07:08:07.898Z,24.90
2022-07-27T07:14:21.931Z,24.90
2022-07-27T07:20:34.470Z,24.90
2022-07-27T07:26:49.148Z,24.90
2022-07-27T07:33:03.115Z,24.90
2022-07-27T07:39:16.581Z,24.90
2022-07-27T07:45:28.554Z,24.80
2022-07-27T07:51:43.100Z,24.90
2022-07-27T07:57:55.420Z,24.80
2022-07-27T08:04:07.751Z,24.80
2022-07-27T08:10:21.733Z,24.80
2022-07-27T08:16:35.862Z,24.70
2022-07-27T08:22:50.830Z,24.70
2022-07-27T08:29:13.147Z,24.80
2022-07-27T08:35:17.834Z,24.80
2022-07-27T08:41:31.289Z,24.80
2022-07-27T08:47:44.342Z,24.70
2022-07-27T08:53:56.811Z,24.70
2022-07-27T09:00:12.509Z,24.70
2022-07-27T09:06:37.467Z,24.80
2022-07-27T09:12:51.519Z,24.70
2022-07-27T09:19:09.016Z,24.70
2022-07-27T09:25:38.726Z,24.80
2022-07-27T09:31:39.640Z,24.80
2022-07-27T09:37:53.845Z,24.80
2022-07-27T09:50:32.365Z,24.70
2022-07-27T09:56:43.605Z,24.70
2022-07-27T10:02:56.783Z,24.70
2022-07-27T10:09:09.286Z,24.70
2022-07-27T10:15:23.271Z,24.60
2022-07-27T10:21:37.548Z,24.70
2022-07-27T10:27:51.772Z,24.70
2022-07-27T10:34:06.109Z,24.70
2022-07-27T10:40:41.233Z,24.70
2022-07-27T10:46:56.838Z,24.60
2022-07-27T10:53:28.605Z,24.60
2022-07-27T11:00:12.464Z,24.70
2022-07-27T11:06:32.445Z,24.70
2022-07-27T11:12:31.283Z,24.60
2022-07-27T11:18:44.973Z,24.70
2022-07-27T11:25:01.863Z,24.70
2022-07-27T11:31:13.101Z,24.80
2022-07-27T11:37:26.583Z,24.80
2022-07-27T11:43:45.874Z,24.70
2022-07-27T11:49:59.388Z,24.80
2022-07-27T11:56:14.163Z,24.90
2022-07-27T12:02:28.012Z,24.90
2022-07-27T12:08:42.691Z,25.00
2022-07-27T12:14:59.032Z,25.10
2022-07-27T12:21:14.328Z,25.10
2022-07-27T12:27:28.541Z,25.10
2022-07-27T12:33:43.509Z,25.20
2022-07-27T12:39:56.906Z,25.30
2022-07-27T12:46:19.495Z,25.30
2022-07-27T12:52:32.060Z,25.30
2022-07-27T12:58:46.934Z,25.30
2022-07-27T13:04:59.753Z,25.40
2022-07-27T13:11:13.813Z,25.50
2022-07-27T13:17:27.093Z,25.50
2022-07-27T13:23:41.217Z,25.50
2022-07-27T13:29:54.268Z,25.60
2022-07-27T13:36:09.721Z,25.70
2022-07-27T13:42:22.764Z,25.80
2022-07-27T13:48:35.651Z,25.80
2022-07-27T13:54:48.070Z,25.80
2022-07-27T14:01:07.152Z,25.80
2022-07-27T14:07:18.419Z,25.90
2022-07-27T14:13:31.838Z,25.90
2022-07-27T14:19:46.258Z,25.90
2022-07-27T14:26:00.694Z,25.90
2022-07-27T14:32:17.558Z,25.90
2022-07-27T14:38:31.366Z,25.90
2022-07-27T14:44:45.850Z,26.00
2022-07-27T14:51:00.046Z,25.90
2022-07-27T14:57:12.738Z,25.90
2022-07-27T15:03:27.263Z,25.90
2022-07-27T15:09:39.582Z,26.00
2022-07-27T15:15:54.967Z,26.00
2022-07-27T15:22:09.081Z,26.00
2022-07-27T15:28:23.207Z,26.00
2022-07-27T15:34:35.843Z,26.00
2022-07-27T15:40:49.945Z,26.10
2022-07-27T15:47:01.732Z,26.20
2022-07-27T15:53:11.023Z,26.20
2022-07-27T15:59:25.858Z,26.20
2022-07-27T16:05:41.375Z,26.30
2022-07-27T16:11:55.513Z,26.30
2022-07-27T16:18:08.364Z,26.30
2022-07-27T16:24:23.494Z,26.40
2022-07-27T16:30:38.456Z,26.50
2022-07-27T16:36:51.425Z,26.60
2022-07-27T16:43:06.357Z,26.60
2022-07-27T16:49:20.487Z,26.70
2022-07-27T16:55:33.697Z,26.90
2022-07-27T17:01:45.891Z,26.90
2022-07-27T17:08:00.186Z,26.90
2022-07-27T17:14:14.156Z,26.90
2022-07-27T17:20:35.397Z,26.80
2022-07-27T17:26:45.434Z,26.80
2022-07-27T17:32:58.352Z,26.90
2022-07-27T17:39:13.710Z,26.90
2022-07-27T17:45:28.707Z,26.90
2022-07-27T17:51:41.538Z,26.90
2022-07-27T17:57:54.018Z,26.90
2022-07-27T18:04:08.291Z,27.00
2022-07-27T18:10:20.881Z,27.00
2022-07-27T18:16:40.148Z,27.00
2022-07-27T18:22:50.970Z,27.00
2022-07-27T18:29:05.203Z,27.10
2022-07-27T18:35:20.838Z,27.10
2022-07-27T18:41:35.081Z,27.10
2022-07-27T18:47:49.325Z,27.10
2022-07-27T18:54:03.584Z,27.10
2022-07-27T19:00:21.037Z,27.20
2022-07-27T19:06:33.534Z,27.20
2022-07-27T19:12:47.255Z,27.20
2022-07-27T19:19:00.256Z,27.20
2022-07-27T19:25:16.557Z,27.20
2022-07-27T19:31:30.594Z,27.30
2022-07-27T19:37:43.502Z,27.30
2022-07-27T19:43:58.330Z,27.40
2022-07-27T19:50:08.876Z,27.40
2022-07-27T19:56:23.451Z,27.40
2022-07-27T20:02:38.070Z,27.40
2022-07-27T20:08:52.669Z,27.40
2022-07-27T20:15:05.768Z,27.50
2022-07-27T20:21:23.343Z,27.50
2022-07-27T20:27:34.707Z,27.50
2022-07-27T20:33:49.489Z,27.50
2022-07-27T20:40:02.673Z,27.50
2022-07-27T20:46:15.792Z,27.50
2022-07-27T20:52:31.276Z,27.60
2022-07-27T20:58:43.969Z,27.60
2022-07-27T21:04:57.271Z,27.60
2022-07-27T21:11:13.112Z,27.70
2022-07-27T21:17:27.289Z,27.70
2022-07-27T21:23:57.018Z,27.70
2022-07-27T21:30:11.401Z,27.70
2022-07-27T21:36:25.430Z,27.70
2022-07-27T21:42:39.615Z,27.60
2022-07-27T21:48:52.597Z,27.70
2022-07-27T21:55:03.738Z,27.90
2022-07-27T22:01:14.819Z,27.90
2022-07-27T22:07:28.848Z,28.00
2022-07-27T22:13:41.317Z,28.00
2022-07-27T22:19:55.405Z,28.00
2022-07-27T22:26:09.834Z,28.00
2022-07-27T22:32:23.762Z,27.90
2022-07-27T22:38:36.278Z,27.90
2022-07-27T22:44:49.593Z,27.80
2022-07-27T22:51:00.961Z,27.90
2022-07-27T22:57:13.813Z,28.00
2022-07-27T23:03:27.276Z,27.70
2022-07-27T23:09:41.653Z,27.50
2022-07-27T23:15:56.168Z,27.40
2022-07-27T23:22:10.965Z,27.50
2022-07-27T23:28:25.756Z,27.50
2022-07-27T23:34:39.792Z,27.60
2022-07-27T23:40:52.673Z,27.60
2022-07-27T23:47:04.426Z,27.60
2022-07-27T23:53:19.839Z,27.70
2022-07-27T23:59:33.908Z,27.60
